10 GIRO DELL'UMBRIA A TAPPE

2^ TAPPA - Vallo di Nera - S.Anatolia di Narco - Scheggino (Pg) - km 9,850

13/04/2012

 

CLASSIFICA GENERALE MASCHILE - Km 9,850
Pos. Pett. Cognome Nome Anno Societa' Categ. Tempo Media
1 1 Conti Piergiorgio 70 Atl Avis Pg MM 40 0:33:53 3,26
2 10 Pontani Luigi 64 Atl Avis Pg MM 45 0:34:00 3,27
3 2 Dall'Ara  Michele 76 Atl Pavese (MI) MM 35 0:34:24 3,30
4 4 Ragni  Marco 80 Dream Runners PG AM.TM 0:35:00 3,33
5 5 Montioni  Cesare 81 Atl. Capanne AM.TM 0:35:30 3,36
6 3 Baldelli Giuseppe 68 Atl Avis Pg MM 40 0:35:38 3,37
7 57 Toni Michele 65 G.S. Gabbi MM 45 0:35:50 3,38
8 24 Salari Michele 75 Pod. Avis Fabriano MM 35 0:35:58 3,39
9 22 Mangili Manuel 79 Atl Pavese (MI) AM.TM 0:36:00 3,39
10 11 Ametrano  Alessio 83 Pod. Corciano AM.TM 0:36:19 3,41
11 13 Curcio Antonio 80 Atl Pavese (MI) AM.TM 0:36:19 3,41
12 6 Facciolo Valerio 68 Atl Pavese (MI) MM 40 0:36:22 3,42
13 7 Tortoioli  Marco 72 Atl Avis Pg MM 40 0:36:36 3,43
14 9 Morani Evian 72 Assisi Runners MM 40 0:36:40 3,43
15 37 Sfondalmondo Massimiliano 71 Atl Avis Pg MM 40 0:36:47 3,44
16 68 Giorgetti  Claudio 60 Amatori Podistica Terni MM 50 0:36:55 3,45
17 75 Pallotta Roberto 62 Winner Foligno MM 50 0:37:17 3,47
18 56 Tini  Fabrizio 67 Atl. Capanne MM 45 0:37:21 3,48
19 55 Ranieri  Giovanni 65 Olympic Lama MM 45 0:37:26 3,48
20 20 Caporaletti Simone 76 Avis Uispsport Todi MM 35 0:37:29 3,48
21 47 Casalini Sergio 84 Winner Foligno AM.TM 0:37:31 3,49
22 34 Pirilli Andrea 69 Dream Runners PG MM 40 0:37:50 3,50
23 102 Masiero Orazio 52 Voltan Mestre MM 60 0:37:53 3,51
24 8 Bordoni  Paolo 63 Dream Runners PG MM 45 0:37:54 3,51
25 71 Mattioli  Claudio 59 Atl Avis Pg MM 50 0:38:03 3,52
26 86 D'Amico Giovanni 56 C.d.p. Trb Group MM 55 0:38:09 3,52
27 74 Palanca Annibale 58 C.d.p. Trb Group MM 50 0:38:14 3,53
28 26 Torti Mirko 75 Winner Foligno MM 35 0:38:26 3,54
29 41 Bastianini  Federico 66 Dimarco Sport (VT) MM 45 0:38:40 3,56
30 12 Angelucci Gabriele 86 Winner Foligno AM.TM 0:38:51 3,57
31 54 Polticchia  Roberto 64 C.d.p. Trb Group MM 45 0:39:12 3,59
32 42 Bazzucchi Mauro 65 Aspa Bastia MM 45 0:39:14 3,59
33 109 Valente  Raffaello 52 G.S. Alpini (VI) MM 60 0:39:32 4,01
34 101 Mangialasche Alfonso 51 C.d.p. Trb Group MM 60 0:39:33 4,01
35 40 Arcelli  Fabrizio 64 Atl Avis Pg MM 45 0:39:43 4,02
36 35 Procacci Nadio 70 Marthon Castello MM 40 0:39:47 4,02
37 64 Covarelli Mauro 59 Atl Avis Pg MM 50 0:40:18 4,05
38 67 Giacomelli Matteo 86 ASD Avis Terni AM.TM 0:40:27 4,06
39 25 Sfodera Marco 74 Pod. Corciano MM 35 0:40:34 4,07
40 33 Muti Massimiliano 68 Satrini Group Trevi MM 40 0:40:37 4,07
41 43 Binacci Massimo 65 Atl Avis Pg MM 45 0:40:42 4,08
42 36 Ridolfi  Massimiliano 70 Assisi Runners MM 40 0:40:50 4,09
43 61 Bucari Fazio 61 Pod. Carsulae MM 50 0:40:54 4,09
44 89 Manetta Sergio 55 Atl. Capanne MM 55 0:40:57 4,09
45 44 Bosco Sabino 66 Assisi Runners MM 45 0:41:01 4,10
46 88 Frenguelli Franco 56 Atl Avis Pg MM 55 0:41:01 4,10
47 18 Brunelli  Alessandro 78 Dream Runners PG AM.TM 0:41:07 4,10
48 14 Fastellini  Paolo 78 Dream Runners PG AM.TM 0:41:18 4,12
49 27 Antonini G.Luca 72 Assisi Runners MM 40 0:41:30 4,13
50 87 Di  Matteo  Mario 55 Atl. Capanne MM 55 0:41:37 4,14
51 48 Chessa  Giovanni 65 Atl. Capanne MM 45 0:42:13 4,17
52 104 Passeri Luciano 51 Atl. Il Colle MM 60 0:42:22 4,18
53 94 Porchetti Fabrizio 56 POD. Mirycae (TR) MM 55 0:42:23 4,18
54 70 Mariani Massimo 62 Lino Spagnoli MM 50 0:42:32 4,19
55 91 Natalicchi  Cesare 56 Dream Runners PG MM 55 0:42:39 4,20
56 63 Canapari Francesco 58 Atl Avis Pg MM 50 0:42:40 4,20
57 76 Perin Tiziano 58 Idealdoor S.Biagio (TV) MM 50 0:42:44 4,20
58 58 Bagna Mirko Mario 59 Pol. S.Orso (Aosta) MM 50 0:42:45 4,20
59 97 Tortorella  Carlo 55 C.d.p. Trb Group MM 55 0:42:46 4,21
60 95 Righini Solerte 54 D.L.F. Rimini MM 55 0:42:52 4,21
61 85 Dal Pra Riccardo 53 G.S. Alpini (VI) MM 55 0:42:53 4,21
62 52 Paoloni Piero 64 Atl. Capanne MM 45 0:42:56 4,22
63 23 Saccoccini  Marco 77 Atl. Il Colle MM 35 0:43:06 4,23
64 38 Vecchini  Sergio 70 Marathon Castello MM 40 0:43:27 4,25
65 84 Corso Vittorino 53 G.S. Alpini (VI) MM 55 0:44:11 4,29
66 15 Felici Dimitri 81 Atl. Montefiascone (VT) AM.TM 0:44:15 4,30
67 53 Pastore Lorenzo 67 Winner Foligno MM 45 0:44:20 4,30
68 45 Capodimonti Fausto 67 Winner Foligno MM 45 0:44:21 4,30
69 105 Puccio  Francesco 49 Atl Pavese (MI) MM 60 0:44:36 4,32
70 31 Lazzarini Francesco 69 Assisi Runners MM 40 0:44:44 4,32
71 81 Boncio Maurizio 56 Aspa Bastia MM 55 0:44:59 4,34
72 32 Meini Giuseppe 68 Avis San Sepolcro MM 40 0:45:02 4,34
73 66 Franco Dario 58 G.S. Pomaretto MM 50 0:45:05 4,35
74 49 Goracci Marco 66 Volumnia Sericap MM 45 0:45:22 4,36
75 21 Giubilei Riccardo 73 Uisp Avis Terni MM 35 0:45:49 4,39
76 93 Pierelli Vinicio 56 Atl. Taino MM 55 0:45:51 4,39
77 78 Valente Giuseppe Nicola 60 Avisincorsa Conversano (BA) MM 50 0:45:52 4,39
78 28 Cucchia  Gianni 71 Volumnia Sericap MM 40 0:46:06 4,41
79 51 Menconi Antonello 67 C.d.p. Trb Group MM 45 0:46:11 4,41
80 115 Ministro Giancarlo 43 Amatori Podistica Terni MM 65 0:46:16 4,42
81 114 Mancinelli Sergio 45 Assi Giglio Rosso (Fi) MM 65 0:46:54 4,46
82 80 Bonafé  Corrado 53 Castenaso (BO) MM 55 0:47:08 4,47
83 17 Uruci Ermal 84 Pod. Corciano AM.TM 0:47:17 4,48
84 112 Gasparetto Luciano 47 G.P. Montebelluna MM 65 0:47:27 4,49
85 65 Dal Santo  Erminio 58 G.S. Alpini (VI) MM 50 0:47:33 4,50
86 30 Falaschi  Daniele 71 C.d.p. Trb Group MM 40 0:47:53 4,52
87 79 Verdinelli Fabio 58 Winner Foligno MM 50 0:48:13 4,54
88 46 Cardaioli  Danilo 63 Atl. Il Colle MM 45 0:48:27 4,55
89 29 De Rosa Raffaele 72 Atl. Capanne MM 40 0:48:41 4,57
90 90 Mazzoli Andrea 55 Lolli Auto (BO) MM 55 0:48:44 4,57
91 113 Inzerillo Giovanni 46 Atl. Intesa Milano MM 65 0:49:07 4,59
92 121 Nobili  Pietro 40 G.P. Garlaschese (PV) MM 70 0:49:14 5,00
93 96 Rondini Stefano 54 Atl Avis Pg MM 55 0:49:25 5,01
94 60 Bottoloni  Raffaele 60 Volumnia Sericap MM 50 0:49:30 5,02
95 98 Zorzanello Giovanni 55 G.S. Mombocar (VR) MM 55 0:49:33 5,02
96 122 Ricci  Francesco 39 Volumnia Sericap MM 70 0:49:43 5,03
97 92 Negroni Sergio 53 Winner Foligno MM 55 0:49:57 5,04
98 83 Castraberte  Fausto  55 Dream Runners PG MM 55 0:49:59 5,04
99 99 Baldassarri Luciano 48 UISP Faenza MM 60 0:50:14 5,06
100 62 Camerucci Tiberio 60 Winner Foligno MM 50 0:50:40 5,09
101 82 Bortolan  Renzo 53 Idealdoor S.Biagio (TV) MM 55 0:50:41 5,09
102 108 Strada Mario 52 G.P. Garlaschese (PV) MM 60 0:51:12 5,12
103 100 Gennari Giuliano 49 Amatori Podistica Terni MM 60 0:51:13 5,12
104 120 Moroni Bruno 42 Atl. Capanne MM 70 0:51:50 5,16
105 124 Airoli Silvano 50 Atl Pavese (MI) MM 60 0:52:06 5,17
106 77 Piccini Franco 58 Atl. Capanne MM 50 0:52:27 5,19
107 117 Ortica Adriano 46 Atl. Il Colle MM 65 0:53:05 5,23
108 116 Moracci  Guerrino 46 Atl. Intesa Milano MM 65 0:55:20 5,37
109 110 Ceppi Agostino 44 Winner Foligno MM 65 0:55:40 5,39
110 69 Grillo Giacomo 58 Amatori Podistica Terni MM 50 0:56:29 5,44
111 73 Orioli Sergio 58 Atl. Capanne MM 50 0:56:46 5,46
112 50 Laoreti Fabio 66 Amatori Podistica Terni MM 45 1:02:46 6,22
113 39 Vettese Marcello 72 Amatori Podistica Terni MM 40 1:02:46 6,22
114 119 Ciampi  Vittorio 40 C.d.p. Trb Group MM 70 1:07:15 6,50
115 111 Cucchetti  Fabrizio 46 Atl Pavese (MI) MM 65 1:07:40 6,52
116 123 Brunetti  Benito 34 Volumnia Sericap MM 75 1:07:40 6,52
117 106 Rizzo Giorgio 49 Assindustria Rovigo MM 60 1:13:00 7,25
118 19 Bartoccini Paolo 75 Volumnia Sericap MM 35    
119 72 Micanti  G. Carlo 62 Dream Runners PG MM 50    
120 118 Taddei Nazzareno 46 Satrini Group Trevi MM 65    
CLASSIFICA GENERALE FEMMINLE - Km 9,850
Pos. Pett. Cognome Nome Anno Societa' Categ. Tempo Media
1 144 Nanu Ana 73 Gabbi Bologna MF 35 0:37:52 3,51
2 142 Enriquez Irene 77 Atl. Il Colle MF 35 0:41:16 4,11
3 155 Draoli Maria Cristina 64 Assisi Runners MF 45 0:42:05 4,16
4 174 Galbani Anna Maria 52 La Michetta (MI) MF 60 0:42:26 4,18
5 150 Pappadŕ Roberta 68 Atl Avis Pg MF 40 0:42:53 4,21
6 147 Krejci Susanne 72 Atl. Il Colle MF 40 0:43:07 4,23
7 171 Lambertini Paola 57 Atl. 85 Faenza MF 55 0:45:03 4,34
8 159 Palombi  Roberta 63 Atl Avis Pg MF 45 0:45:52 4,39
9 145 Piastra  Lorena 77 C.d.p. Trb Group MF 35 0:46:15 4,42
10 148 Donnini Fabiola 72 Atl. Taino MF 40 0:46:52 4,45
11 158 Murasecco  Pierpaola 66 Atl Avis Pg MF 45 0:47:04 4,47
12 146 Vichi Katiuscia 74 Pod. Corciano MF 35 0:47:16 4,48
13 165 Picchio M. Luisa 62 Atl. Avis Pg MF 50 0:47:49 4,51
14 151 Severini  Sarita 69 Lino Spagnoli MF 40 0:47:54 4,52
15 164 Campigotto Maria Teresa 61 Idealdoor S.Biagio (TV) MF 50 0:48:07 4,53
16 170 Danese M. Antonietta 53 G.S. Alpini (VI) MF 55 0:48:20 4,54
17 166 Strada  M. Teresa 58 G.P. Garlaschese (PV) MF 50 0:48:25 4,55
18 160 Staccioli Gabriela 64 A.P. Ponte Felcino MF 45 0:48:46 4,57
19 141 Rinaldi Laura 81 Pod. Corciano AM.TF 0:48:47 4,57
20 167 Fabri Patrizia 60 Aspa Bastia MF 50 0:49:05 4,59
21 153 Anastasi Catia Lucia 64 Atl. Taino MF 45 0:49:16 5,00
22 163 Basigli Ivana 62 Atl. Capanne MF 50 0:49:24 5,01
23 156 Falchetti  Anna Maria 66 C.d.p. Trb Group MF 45 0:49:27 5,01
24 157 Giorgetti  Claudia 66 Dream Runners PG MF 45 0:49:39 5,02
25 172 Tron Anita 55 Atl. Valpelice MF 55 0:49:46 5,03
26 176 Mattiolo Franca 48 Atl Pavese (MI) MF 60 0:50:38 5,08
27 173 Bombardieri Mirka 52 Assindustria Rovigo MF 60 0:50:57 5,10
28 143 Munz  Dorothee 77 Atl. Il Colle MF 35 0:51:00 5,11
29 149 Massetti Monia 70 Lino Spagnoli MF 40 0:52:52 5,22
30 152 Agabiti Carolina 63 Amatori Podistica Terni MF 45 0:54:57 5,35
31 168 Anastasi Lydia Beatrice 57 Atl. Taino MF 55 0:56:14 5,43
32 162 Vagnarelli Rema 64 Aspa Bastia MF 45 0:56:31 5,44
33 169 Cattelan Graziana 55 Idealdoor S.Biagio (TV) MF 55 0:56:56 5,47
34 175 Marcolin  Norina 50 G.P. Montebelluna MF 60 0:57:43 5,52
35 161 Vaccarini  Patrizia 65 Amatori Podistica Terni MF 45 0:57:54 5,53
36 177 Poggi M. Rosa 50 US Scalo Voghera (PV) MF 60 0:59:04 6,00
37 178 Invernizzi  Carilla 47 G.P. Garlaschese (PV) MF 65 0:59:36 6,03
38 179 Stringo  Irene 42 Atl Pavese (MI) MF 65 1:03:00 6,24
39 180 Tartamelli Lina 46 Amatori Podistica Terni MF 65 1:04:12 6,31

------------------------------

------------------------------

------------------------------